Hlavní strana
METAR-TAF:

METAR-TAF

Letiště :

Letiště Atény

Athény, Řecko

zeměpisná šířka: 37-56N, zeměpisná délka: 023-56E, výška: 94 m

Aktuální stav počasí

Zpráva byla vytvořena před 37 minutami, v 08:20 UTC
Východoseverovýchodní vítr 9 kt, proměnlivý mezi severoseverovýchodním a východním
Teplota 31°C
Vlhkost vzduchu 31%
Tlak 1011 hPa
Viditelnost 10 km a více
Žádná oblačnost pod 1500 m, nevyskytují se cumulonimby.

METAR: LGAV 160820Z 06009KT 030V090 CAVOK 31/12 Q1011 NOSIG

Čas: 11:57 (08:57 UTC)

Předpověď počasí

Zpráva byla vytvořena před 3 hodinami a 57 minutami, v 05:00 UTC
Předpověď platná od 16 v 06 UTC do 17 v 06 UTC
Severovýchodní vítr 10 kt
Viditelnost 10 km a více
Skoro jasno ve výšce 3000 ft
Změna
od 16 v 10 UTC do 16 v 12 UTC
Jihojihovýchodní vítr 10 kt

TAF: LGAV 160500Z 1606/1706 04010KT 9999 FEW030 BECMG 1610/1612 15010KT

Stav a předpovědi počasí z více než 4 000 letišť (zprávy METAR a TAF).

Červené a žluté tečky na mapě představují dostupné meteorologické stanice.

Když kurzor umístíte na tečku, zobrazí se název stanice.

Pak kliknutím zobrazíte stav a předpověď počasí.

Chcete-li změnit mapu, kliknutím na zelené tlačítko se znaménkem +mapu přiblížíte, kliknutím na zelené tlačítko se znaménkem – mapu oddálíte a kliknutím na zelené šipky přejdete na sousední mapy.


METAR-TAF: